Time;durP1;ratioP1;P1;durP2;ratioP2;P2;SDS_P1;SDS_P2;PMS_P1;PMS_P2;Temp;Humidity;BMP_temperature;BMP_pressure;BME280_temperature;BME280_humidity;BME280_pressure;Samples;Min_cycle;Max_cycle;Signal;HPM_P1;HPM_P2
2022/01/11 18:22:27;;;;;;;10.17;1.30;;;;;;;;;;5106610;27;20448;-62
2022/01/11 18:24:54;;;;;;;9.90;1.42;;;29.20;22.80;;;;;;5104150;28;20030;-62
2022/01/11 18:27:20;;;;;;;11.23;1.27;;;29.40;20.10;;;;;;5105677;28;20100;-60
2022/01/11 18:29:48;;;;;;;6.00;1.30;;;30.10;19.60;;;;;;5073002;28;20407;-61
2022/01/11 18:32:15;;;;;;;10.60;1.27;;;30.80;17.70;;;;;;5105970;28;20088;-63
2022/01/11 18:34:45;;;;;;;8.48;1.30;;;31.00;18.10;;;;;;5104738;28;20057;-59
2022/01/11 18:37:12;;;;;;;6.85;0.80;;;30.30;18.10;;;;;;5103882;28;20483;-60
2022/01/11 18:39:43;;;;;;;13.90;1.38;;;;;;;;;;5087710;28;20080;-63
2022/01/11 18:42:10;;;;;;;5.25;1.10;;;29.10;18.60;;;;;;5104907;28;20056;-63
2022/01/11 18:44:42;;;;;;;6.80;1.08;;;28.80;19.10;;;;;;5105004;28;20413;-62
2022/01/11 18:47:08;;;;;;;6.40;1.20;;;29.10;19.20;;;;;;5105410;28;20144;-61
2022/01/11 18:49:35;;;;;;;3.72;1.00;;;28.40;20.20;;;;;;5110933;28;20494;-62
2022/01/11 18:52:03;;;;;;;4.07;1.17;;;;;;;;;;5090128;28;20085;-59
2022/01/11 18:54:32;;;;;;;4.40;1.08;;;28.40;19.10;;;;;;5103685;28;20489;-60
2022/01/11 18:57:00;;;;;;;6.45;0.95;;;28.60;19.50;;;;;;5105866;28;20115;-62
2022/01/11 18:59:27;;;;;;;1.42;0.60;;;29.00;19.30;;;;;;5088551;28;20166;-60
2022/01/11 19:01:56;;;;;;;1.00;0.75;;;29.20;19.30;;;;;;5071345;28;20647;-62
2022/01/11 19:04:23;;;;;;;5.88;0.77;;;29.40;19.00;;;;;;5103558;28;20079;-63
2022/01/11 19:06:52;;;;;;;3.88;0.68;;;29.40;19.10;;;;;;5104195;28;20087;-62
2022/01/11 19:09:20;;;;;;;2.75;0.40;;;28.70;19.10;;;;;;5102741;28;20110;-64
2022/01/11 19:11:47;;;;;;;3.40;0.80;;;27.90;19.40;;;;;;5106806;28;20545;-65
2022/01/11 19:14:14;;;;;;;14.55;1.77;;;27.40;19.70;;;;;;5104067;28;20078;-61
2022/01/11 19:16:40;;;;;;;3.95;0.88;;;27.20;21.20;;;;;;5106458;28;20069;-61
2022/01/11 19:19:06;;;;;;;2.78;0.63;;;27.10;20.10;;;;;;5086982;28;20172;-59
2022/01/11 19:21:33;;;;;;;6.10;0.88;;;26.60;20.70;;;;;;5103154;28;20728;-59
2022/01/11 19:23:59;;;;;;;7.40;1.38;;;26.50;21.10;;;;;;5102328;28;20671;-59
2022/01/11 19:26:29;;;;;;;5.68;0.65;;;26.40;21.30;;;;;;5100603;28;20083;-60
2022/01/11 19:28:55;;;;;;;6.22;0.90;;;26.00;21.90;;;;;;5100608;28;20124;-63
2022/01/11 19:31:22;;;;;;;4.72;1.08;;;25.70;22.50;;;;;;5104335;28;20088;-60
2022/01/11 19:33:49;;;;;;;3.58;1.10;;;25.40;23.60;;;;;;5087500;28;20478;-58
2022/01/11 19:36:16;;;;;;;7.63;1.15;;;25.70;22.70;;;;;;5088135;28;20098;-61
2022/01/11 19:38:43;;;;;;;5.65;1.10;;;25.60;23.00;;;;;;5089164;28;20530;-57
2022/01/11 19:41:09;;;;;;;8.85;1.20;;;25.70;23.00;;;;;;5072250;28;20092;-60
2022/01/11 19:43:36;;;;;;;10.05;2.28;;;25.50;23.30;;;;;;5056663;28;20100;-58
2022/01/11 19:46:02;;;;;;;13.52;1.20;;;25.60;23.10;;;;;;5089738;28;20075;-59
2022/01/11 19:48:28;;;;;;;1.02;0.50;;;25.50;21.80;;;;;;5091730;28;20520;-60
2022/01/11 19:51:00;;;;;;;1.33;0.50;;;25.40;20.80;;;;;;5087614;28;20468;-60
2022/01/11 19:53:28;;;;;;;1.52;0.60;;;25.10;21.00;;;;;;5090900;28;20195;-61
2022/01/11 19:55:55;;;;;;;3.33;0.60;;;25.00;19.90;;;;;;5091563;28;20612;-60
2022/01/11 19:58:22;;;;;;;1.10;0.50;;;24.80;19.70;;;;;;5089226;28;20543;-60
2022/01/11 20:00:48;;;;;;;0.82;0.55;;;24.70;21.30;;;;;;5073173;28;20432;-60
2022/01/11 20:03:14;;;;;;;4.88;0.63;;;25.10;21.30;;;;;;5087573;28;20060;-57
2022/01/11 20:05:43;;;;;;;3.03;0.80;;;25.00;21.40;;;;;;5088449;28;20098;-59
2022/01/11 20:08:09;;;;;;;6.50;0.70;;;24.90;22.20;;;;;;5071414;28;20529;-60
2022/01/11 20:10:37;;;;;;;4.28;0.80;;;25.20;22.50;;;;;;5088977;28;20103;-60
2022/01/11 20:13:04;;;;;;;2.90;0.80;;;25.40;36.10;;;;;;5090577;28;20069;-61
2022/01/11 20:15:30;;;;;;;5.53;0.60;;;25.10;21.60;;;;;;5073086;28;20541;-60
2022/01/11 20:17:58;;;;;;;3.95;0.65;;;25.10;21.50;;;;;;5054267;28;20154;-60
2022/01/11 20:20:33;;;;;;;3.83;0.45;;;25.00;20.80;;;;;;5074156;28;20101;-60
2022/01/11 20:28:36;;;;;;;4.68;0.60;;;24.90;21.00;;;;;;5089570;28;20096;-59
2022/01/11 20:31:03;;;;;;;4.28;0.75;;;25.10;20.50;;;;;;5088532;28;20418;-59
2022/01/11 20:33:31;;;;;;;2.40;0.77;;;25.10;21.50;;;;;;5089473;28;20068;-59
2022/01/11 20:36:00;;;;;;;2.55;0.60;;;25.30;20.90;;;;;;5087470;28;20082;-59
2022/01/11 20:38:27;;;;;;;0.98;0.55;;;25.60;20.10;;;;;;5070381;28;20076;-58
2022/01/11 20:40:54;;;;;;;3.95;0.70;;;25.60;19.90;;;;;;5089973;28;20103;-59
2022/01/11 20:43:21;;;;;;;0.75;0.50;;;25.50;19.80;;;;;;5089432;28;20071;-58
2022/01/11 20:45:47;;;;;;;5.30;0.73;;;25.30;19.50;;;;;;5088721;28;20064;-59
2022/01/11 20:48:14;;;;;;;47.15;4.10;;;25.30;20.40;;;;;;5086646;28;20153;-58
2022/01/11 20:50:46;;;;;;;7.00;1.10;;;25.50;20.90;;;;;;5088067;28;20086;-57
2022/01/11 20:53:14;;;;;;;1.55;0.57;;;25.40;20.40;;;;;;5085937;28;20072;-60
2022/01/11 20:55:46;;;;;;;0.75;0.60;;;25.00;20.40;;;;;;5090264;28;20079;-59
2022/01/11 20:58:14;;;;;;;6.05;0.85;;;24.90;19.60;;;;;;5089065;28;20096;-58
2022/01/11 21:00:41;;;;;;;1.05;0.60;;;24.90;20.30;;;;;;5087764;28;20183;-58
2022/01/11 21:03:10;;;;;;;7.05;1.05;;;24.80;20.20;;;;;;5088280;28;20098;-60
2022/01/11 21:05:39;;;;;;;0.70;0.50;;;24.70;20.50;;;;;;5087365;28;20071;-58
2022/01/11 21:08:05;;;;;;;3.35;1.13;;;24.60;20.00;;;;;;5087359;28;20530;-57
2022/01/11 21:10:32;;;;;;;14.48;1.48;;;24.60;20.10;;;;;;5086385;28;20184;-58
2022/01/11 21:12:58;;;;;;;4.95;1.15;;;24.60;21.00;;;;;;5088034;28;20096;-58
2022/01/11 21:15:40;;;;;;;1.77;0.60;;;24.50;20.80;;;;;;5070707;28;20079;-58
2022/01/11 21:20:54;;;;;;;4.47;0.70;;;24.50;21.00;;;;;;5087792;28;20742;-60
2022/01/11 21:23:23;;;;;;;2.72;0.70;;;24.20;21.50;;;;;;5086408;28;20151;-57
2022/01/11 21:25:52;;;;;;;3.60;0.80;;;24.20;21.60;;;;;;5071047;28;20073;-59
2022/01/11 21:28:19;;;;;;;3.67;1.20;;;24.10;21.80;;;;;;5088864;28;20490;-57
2022/01/11 21:30:49;;;;;;;1.20;0.73;;;24.10;21.90;;;;;;5087819;28;20075;-59
2022/01/11 21:33:17;;;;;;;8.20;2.88;;;24.00;22.10;;;;;;5087758;28;20080;-57
2022/01/11 21:35:43;;;;;;;3.22;0.70;;;23.80;21.80;;;;;;5086459;28;20076;-58
2022/01/11 21:38:11;;;;;;;6.30;1.05;;;23.80;21.80;;;;;;5088280;28;20072;-59
2022/01/11 21:40:40;;;;;;;3.78;0.80;;;23.90;22.00;;;;;;5089140;28;20084;-59
2022/01/11 21:43:09;;;;;;;2.40;0.82;;;24.00;22.20;;;;;;5085361;28;20514;-57
2022/01/11 21:45:36;;;;;;;2.10;0.52;;;24.10;22.60;;;;;;5086728;28;20107;-57
2022/01/11 21:48:04;;;;;;;2.42;0.57;;;24.10;22.00;;;;;;5086671;28;20064;-62
2022/01/11 21:50:30;;;;;;;1.70;0.60;;;24.20;21.80;;;;;;5087391;28;20522;-59
2022/01/11 21:52:58;;;;;;;1.67;0.75;;;24.00;21.80;;;;;;5088385;28;20178;-60
2022/01/11 21:55:27;;;;;;;3.67;0.60;;;23.80;21.40;;;;;;5086432;28;20090;-60
2022/01/11 21:57:54;;;;;;;2.03;0.90;;;23.70;22.00;;;;;;5087783;28;20517;-58
2022/01/11 22:00:22;;;;;;;6.57;0.82;;;23.80;21.60;;;;;;5087095;28;20079;-57
2022/01/11 22:02:49;;;;;;;1.55;0.77;;;23.70;21.60;;;;;;5087043;28;20084;-56
2022/01/11 22:05:17;;;;;;;2.05;0.70;;;23.80;22.10;;;;;;5086418;28;20137;-59
2022/01/11 22:07:45;;;;;;;7.03;1.25;;;24.00;22.50;;;;;;5094617;28;20155;-60
2022/01/11 22:10:11;;;;;;;2.65;0.80;;;24.00;22.80;;;;;;5088356;28;20068;-58
2022/01/11 22:12:42;;;;;;;5.50;1.00;;;24.20;21.60;;;;;;5091389;28;20161;-59
2022/01/11 22:15:19;;;;;;;1.27;0.70;;;24.10;21.00;;;;;;5087986;28;20536;-57
2022/01/11 22:17:49;;;;;;;3.72;1.20;;;24.00;21.20;;;;;;5079721;28;20079;-58
2022/01/11 22:20:17;;;;;;;6.22;2.25;;;23.90;21.20;;;;;;5092038;28;20075;-60
2022/01/11 22:22:45;;;;;;;2.53;1.10;;;23.90;21.30;;;;;;5086624;28;20099;-57
2022/01/11 22:25:14;;;;;;;6.93;2.20;;;23.80;21.30;;;;;;5069794;28;20085;-60
2022/01/11 22:27:40;;;;;;;3.03;0.98;;;23.70;21.60;;;;;;5087149;28;20077;-60
2022/01/11 22:30:09;;;;;;;3.85;1.20;;;23.60;21.60;;;;;;5085676;28;20075;-58
2022/01/11 22:32:36;;;;;;;4.57;1.30;;;23.50;21.50;;;;;;5091754;28;20083;-59
2022/01/11 22:35:04;;;;;;;4.28;1.17;;;23.50;22.00;;;;;;5086623;28;20159;-60
2022/01/11 22:37:30;;;;;;;3.08;1.30;;;23.50;22.10;;;;;;5087736;28;20083;-58
2022/01/11 22:39:57;;;;;;;4.32;1.25;;;23.60;22.30;;;;;;5086402;28;20069;-58
2022/01/11 22:42:24;;;;;;;1.83;1.20;;;23.60;22.10;;;;;;5090713;28;20542;-56
2022/01/11 22:44:51;;;;;;;6.13;0.93;;;23.60;22.10;;;;;;5071017;28;20078;-56
2022/01/11 22:47:17;;;;;;;3.22;1.00;;;23.60;21.90;;;;;;5084518;28;20079;-58
2022/01/11 22:49:46;;;;;;;2.63;1.20;;;23.50;21.90;;;;;;5086843;28;20079;-57
2022/01/11 22:52:14;;;;;;;7.97;1.60;;;23.50;22.40;;;;;;5086885;28;20643;-61
2022/01/11 22:54:41;;;;;;;7.22;1.52;;;23.40;22.50;;;;;;5085924;28;20120;-58
2022/01/11 22:57:08;;;;;;;9.05;1.55;;;23.20;22.50;;;;;;5086110;28;20089;-61
2022/01/11 22:59:38;;;;;;;12.68;2.58;;;23.00;22.60;;;;;;5086689;28;20071;-61
2022/01/11 23:02:06;;;;;;;8.85;2.20;;;23.00;22.50;;;;;;5086246;28;20096;-57
2022/01/11 23:04:32;;;;;;;12.93;2.08;;;23.00;22.70;;;;;;5086087;28;20084;-58
2022/01/11 23:07:00;;;;;;;5.03;1.80;;;23.10;22.40;;;;;;5088628;28;20069;-58
2022/01/11 23:09:26;;;;;;;10.70;1.63;;;23.00;23.00;;;;;;5090286;28;20092;-59
2022/01/11 23:11:57;;;;;;;5.82;1.20;;;23.00;22.60;;;;;;5090496;28;20075;-56
2022/01/11 23:17:13;;;;;;;4.60;0.98;;;22.70;22.00;;;;;;5100749;28;20146;-59
2022/01/11 23:19:40;;;;;;;6.72;1.17;;;22.70;22.40;;;;;;5093642;28;20171;-60
2022/01/11 23:22:07;;;;;;;7.88;0.90;;;22.60;22.00;;;;;;5090961;28;20218;-62
2022/01/11 23:24:34;;;;;;;6.53;1.00;;;22.60;22.10;;;;;;5089643;28;20065;-59
2022/01/11 23:27:00;;;;;;;104.53;5.75;;;22.60;22.30;;;;;;5090572;28;20076;-61
2022/01/11 23:29:30;;;;;;;100.47;6.55;;;22.60;22.20;;;;;;5089779;28;20088;-60
2022/01/11 23:31:57;;;;;;;10.57;1.90;;;22.70;22.90;;;;;;5091446;28;20249;-60
2022/01/11 23:34:23;;;;;;;15.35;1.08;;;22.70;22.60;;;;;;5089936;28;20109;-59
2022/01/11 23:36:52;;;;;;;5.65;1.17;;;22.70;22.70;;;;;;5090103;28;20087;-62
2022/01/11 23:42:17;;;;;;;15.63;1.65;;;22.60;22.70;;;;;;5089918;28;20944;-61
2022/01/11 23:44:50;;;;;;;13.07;1.52;;;22.50;23.50;;;;;;5087045;28;20080;-62
2022/01/11 23:47:16;;;;;;;8.00;1.10;;;22.40;23.10;;;;;;5093492;28;20949;-61
2022/01/11 23:49:42;;;;;;;11.38;1.38;;;22.40;23.40;;;;;;5090910;28;20163;-60
2022/01/11 23:52:09;;;;;;;7.28;1.27;;;22.30;24.60;;;;;;5089511;28;20078;-63
2022/01/11 23:54:36;;;;;;;9.60;1.80;;;22.30;24.50;;;;;;5070562;28;20087;-59
2022/01/11 23:57:03;;;;;;;18.10;1.58;;;22.20;24.60;;;;;;5090900;28;20088;-63
2022/01/11 23:59:29;;;;;;;18.48;1.58;;;22.10;24.40;;;;;;5091540;28;20157;-56
